createdAt,value
2022-10-06T00:02:00.626Z,5.49
2022-10-06T00:07:56.857Z,5.66
2022-10-06T00:10:50.979Z,5.96
2022-10-06T00:13:40.855Z,6.25
2022-10-06T00:16:30.087Z,6.51
2022-10-06T00:22:05.224Z,7.54
2022-10-06T00:25:07.122Z,7.91
2022-10-06T00:27:49.394Z,7.72
2022-10-06T00:30:24.432Z,7.40
2022-10-06T00:33:03.531Z,7.17
2022-10-06T00:35:52.599Z,7.03
2022-10-06T00:41:29.835Z,5.86
2022-10-06T00:44:11.794Z,5.82
2022-10-06T00:46:55.053Z,6.03
2022-10-06T00:49:40.142Z,6.20
2022-10-06T00:52:20.288Z,6.32
2022-10-06T00:55:21.673Z,6.61
2022-10-06T00:58:16.779Z,6.81
2022-10-06T01:00:55.904Z,6.75
2022-10-06T01:03:41.008Z,6.81
2022-10-06T01:06:28.718Z,6.54
2022-10-06T01:09:14.027Z,7.29
2022-10-06T01:11:59.655Z,7.43
2022-10-06T01:14:38.587Z,7.55
2022-10-06T01:17:21.014Z,7.62
2022-10-06T01:20:18.605Z,7.67
2022-10-06T01:23:22.284Z,7.84
2022-10-06T01:26:00.828Z,7.87
2022-10-06T01:28:54.888Z,7.78
2022-10-06T01:31:49.763Z,7.63
2022-10-06T01:34:36.653Z,7.59
2022-10-06T01:37:30.705Z,7.64
2022-10-06T01:40:27.674Z,7.77
2022-10-06T01:43:18.218Z,7.88
2022-10-06T01:46:31.994Z,7.82
2022-10-06T01:49:26.906Z,7.95
2022-10-06T01:52:23.000Z,8.13
2022-10-06T01:55:08.069Z,8.19
2022-10-06T01:58:10.176Z,8.37
2022-10-06T02:00:50.179Z,8.53
2022-10-06T02:03:30.276Z,8.57
2022-10-06T02:06:30.173Z,8.52
2022-10-06T02:09:17.536Z,8.50
2022-10-06T02:12:27.108Z,8.39
2022-10-06T02:15:39.578Z,8.28
2022-10-06T02:18:17.572Z,8.02
2022-10-06T02:20:57.093Z,7.60
2022-10-06T02:23:58.234Z,7.65
2022-10-06T02:26:55.549Z,7.60
2022-10-06T02:29:46.495Z,7.61
2022-10-06T02:32:30.786Z,7.69
2022-10-06T02:35:09.456Z,7.80
2022-10-06T02:38:06.167Z,7.91
2022-10-06T02:40:48.999Z,7.94
2022-10-06T02:43:42.597Z,7.87
2022-10-06T02:46:31.820Z,7.90
2022-10-06T02:49:37.837Z,7.91
2022-10-06T02:52:39.995Z,7.84
2022-10-06T02:55:37.970Z,7.68
2022-10-06T02:58:16.280Z,7.63
2022-10-06T03:00:55.456Z,7.39
2022-10-06T03:03:41.662Z,7.27
2022-10-06T03:06:31.849Z,7.20
2022-10-06T03:09:39.770Z,7.28
2022-10-06T03:12:27.497Z,7.41
2022-10-06T03:15:17.108Z,7.38
2022-10-06T03:17:59.814Z,7.56
2022-10-06T03:20:57.348Z,7.84
2022-10-06T03:23:46.710Z,7.99
2022-10-06T03:27:03.468Z,7.73
2022-10-06T03:29:40.897Z,7.50
2022-10-06T03:32:25.132Z,7.63
2022-10-06T03:35:14.097Z,7.71
2022-10-06T03:37:49.376Z,8.04
2022-10-06T03:43:25.225Z,8.52
2022-10-06T03:46:22.873Z,8.70
2022-10-06T03:49:06.013Z,8.32
2022-10-06T03:51:59.251Z,8.13
2022-10-06T03:54:51.674Z,8.53
2022-10-06T03:57:30.018Z,8.11
2022-10-06T04:00:21.042Z,7.87
2022-10-06T04:06:16.204Z,8.10
2022-10-06T04:09:12.557Z,8.05
2022-10-06T04:12:04.681Z,7.73
2022-10-06T04:14:49.986Z,7.92
2022-10-06T04:17:41.732Z,7.70
2022-10-06T04:20:35.846Z,7.89
2022-10-06T04:23:14.219Z,8.05
2022-10-06T04:29:37.642Z,7.82
2022-10-06T04:32:38.605Z,8.02
2022-10-06T04:35:23.773Z,8.20
2022-10-06T04:38:06.191Z,8.33
2022-10-06T04:40:41.992Z,8.41
2022-10-06T04:43:44.602Z,8.70
2022-10-06T04:46:43.793Z,8.80
2022-10-06T04:49:35.559Z,8.46
2022-10-06T04:52:20.046Z,8.36
2022-10-06T04:55:02.282Z,8.40
2022-10-06T04:57:46.644Z,8.44
2022-10-06T05:00:29.200Z,8.26
2022-10-06T05:03:13.947Z,7.94
2022-10-06T05:06:06.365Z,7.83
2022-10-06T05:09:04.692Z,8.05
2022-10-06T05:11:57.875Z,8.16
2022-10-06T05:14:46.374Z,8.32
2022-10-06T05:17:26.684Z,8.59
2022-10-06T05:20:05.196Z,8.73
2022-10-06T05:23:02.026Z,8.91
2022-10-06T05:25:53.734Z,8.93
2022-10-06T05:28:52.426Z,8.79
2022-10-06T05:31:36.815Z,9.37
2022-10-06T05:34:26.749Z,9.40
2022-10-06T05:37:16.076Z,9.32
2022-10-06T05:39:53.233Z,9.23
2022-10-06T05:42:47.946Z,9.17
2022-10-06T05:45:52.740Z,9.12
2022-10-06T05:48:53.256Z,9.23
2022-10-06T05:51:34.831Z,9.00
2022-10-06T06:03:30.365Z,7.93
2022-10-06T06:06:40.285Z,7.66
2022-10-06T06:12:38.436Z,7.17
2022-10-06T06:15:56.037Z,7.23
2022-10-06T06:18:44.639Z,7.12
2022-10-06T06:21:29.749Z,7.40
2022-10-06T06:27:04.997Z,7.27
2022-10-06T06:29:49.679Z,7.39
2022-10-06T06:32:28.694Z,7.47
2022-10-06T06:35:08.114Z,7.08
2022-10-06T06:37:54.508Z,7.27
2022-10-06T06:40:30.751Z,7.12
2022-10-06T06:46:20.322Z,7.09
2022-10-06T06:49:10.742Z,6.90
2022-10-06T06:51:56.650Z,6.90
2022-10-06T06:54:52.192Z,6.98
2022-10-06T06:57:32.679Z,6.94
2022-10-06T07:00:10.109Z,6.88
2022-10-06T07:03:05.606Z,6.82
2022-10-06T07:05:45.786Z,6.77
2022-10-06T07:08:31.641Z,6.60
2022-10-06T07:11:26.156Z,6.60
2022-10-06T07:14:25.549Z,6.55
2022-10-06T07:17:25.670Z,6.53
2022-10-06T07:20:44.307Z,6.45
2022-10-06T07:23:46.235Z,6.34
2022-10-06T07:26:32.249Z,6.19
2022-10-06T07:29:18.984Z,6.13
2022-10-06T07:31:56.860Z,5.98
2022-10-06T07:34:49.460Z,5.91
2022-10-06T07:37:34.245Z,5.83
2022-10-06T07:40:20.335Z,5.72
2022-10-06T07:43:09.978Z,5.32
2022-10-06T07:46:05.548Z,5.43
2022-10-06T07:52:33.604Z,5.22
2022-10-06T07:55:27.855Z,5.11
2022-10-06T07:58:14.231Z,4.99
2022-10-06T08:00:51.813Z,4.80
2022-10-06T08:03:33.034Z,4.70
2022-10-06T08:06:20.009Z,4.40
2022-10-06T08:09:15.020Z,4.54
2022-10-06T08:11:56.828Z,4.49
2022-10-06T08:14:54.434Z,4.36
2022-10-06T08:17:35.720Z,4.33
2022-10-06T08:20:37.571Z,4.20
2022-10-06T08:23:18.786Z,4.07
2022-10-06T08:25:58.503Z,3.95
2022-10-06T08:29:20.665Z,3.85
2022-10-06T08:32:13.421Z,3.75
2022-10-06T08:35:06.386Z,3.57
2022-10-06T08:37:49.902Z,3.44
2022-10-06T08:40:49.328Z,2.86
2022-10-06T08:43:33.906Z,3.26
2022-10-06T08:46:17.110Z,3.23
2022-10-06T08:48:55.264Z,3.16
2022-10-06T08:51:51.816Z,3.17
2022-10-06T08:54:44.450Z,3.07
2022-10-06T08:57:47.276Z,2.92
2022-10-06T09:00:31.765Z,2.82
2022-10-06T09:03:36.878Z,2.62
2022-10-06T09:06:31.459Z,2.40
2022-10-06T09:09:20.837Z,2.12
2022-10-06T09:12:29.144Z,1.85
2022-10-06T09:15:12.410Z,1.75
2022-10-06T09:18:01.295Z,1.62
2022-10-06T09:20:55.820Z,1.59
2022-10-06T09:23:42.469Z,1.51
2022-10-06T09:26:20.517Z,1.40
2022-10-06T09:29:03.417Z,1.33
2022-10-06T09:31:47.523Z,0.65
2022-10-06T09:34:49.971Z,1.13
2022-10-06T09:37:27.322Z,0.55
2022-10-06T09:40:10.274Z,0.99
2022-10-06T09:43:09.765Z,0.86
2022-10-06T09:46:02.922Z,0.60
2022-10-06T09:48:49.508Z,0.67
2022-10-06T09:51:35.898Z,0.59
2022-10-06T09:54:30.749Z,0.46
2022-10-06T09:57:32.708Z,0.51
2022-10-06T10:00:16.789Z,0.43
2022-10-06T10:03:09.902Z,0.13
2022-10-06T10:06:12.653Z,0.55
2022-10-06T10:08:53.821Z,0.38
2022-10-06T10:15:39.982Z,0.93
2022-10-06T10:18:21.683Z,0.95
2022-10-06T10:21:12.259Z,1.02
2022-10-06T10:24:11.243Z,1.20
2022-10-06T10:27:14.954Z,1.37
2022-10-06T10:30:10.163Z,1.55
2022-10-06T10:33:29.957Z,1.60
2022-10-06T10:36:19.187Z,1.67
2022-10-06T10:39:02.405Z,1.63
2022-10-06T10:41:58.694Z,1.43
2022-10-06T10:45:02.779Z,1.72
2022-10-06T10:48:14.497Z,1.63
2022-10-06T10:51:09.399Z,1.47
2022-10-06T10:54:05.234Z,1.56
2022-10-06T10:56:54.394Z,1.67
2022-10-06T10:59:53.771Z,1.72
2022-10-06T11:02:51.136Z,1.76
2022-10-06T11:05:39.952Z,1.82
2022-10-06T11:08:32.318Z,1.84
2022-10-06T11:11:25.189Z,1.82
2022-10-06T11:14:32.113Z,1.99
2022-10-06T11:17:26.039Z,2.11
2022-10-06T11:20:21.796Z,2.16
2022-10-06T11:23:05.920Z,1.78
2022-10-06T11:25:47.080Z,2.30
2022-10-06T11:28:39.222Z,2.36
2022-10-06T11:31:28.215Z,2.22
2022-10-06T11:34:17.166Z,2.37
2022-10-06T11:40:38.647Z,2.37
2022-10-06T11:43:30.776Z,2.44
2022-10-06T11:46:29.676Z,2.50
2022-10-06T11:49:53.095Z,2.56
2022-10-06T11:53:06.217Z,2.44
2022-10-06T11:55:49.776Z,2.34
2022-10-06T11:58:42.358Z,2.31
2022-10-06T12:01:59.043Z,2.26
2022-10-06T12:04:38.519Z,2.23
2022-10-06T12:07:22.542Z,2.28
2022-10-06T12:10:14.593Z,2.20
2022-10-06T12:13:53.261Z,2.31
2022-10-06T12:19:35.758Z,2.44
2022-10-06T12:22:38.650Z,2.52
2022-10-06T12:25:28.699Z,2.48
2022-10-06T12:28:28.900Z,2.35
2022-10-06T12:31:21.432Z,2.63
2022-10-06T12:33:58.507Z,2.82
2022-10-06T12:36:49.018Z,2.85
2022-10-06T12:39:42.241Z,2.84
2022-10-06T12:45:46.550Z,2.87
2022-10-06T12:48:49.741Z,2.81
2022-10-06T12:51:37.764Z,2.85
2022-10-06T12:54:28.648Z,2.49
2022-10-06T12:57:33.238Z,2.82
2022-10-06T13:01:00.484Z,2.89
2022-10-06T13:04:02.788Z,2.88
2022-10-06T13:06:43.069Z,2.90
2022-10-06T13:09:36.010Z,2.39
2022-10-06T13:12:38.631Z,2.97
2022-10-06T13:15:34.887Z,2.99
2022-10-06T13:18:28.314Z,3.13
2022-10-06T13:21:14.877Z,3.06
2022-10-06T13:23:55.237Z,3.11
2022-10-06T13:26:35.689Z,2.76
2022-10-06T13:29:31.431Z,3.05
2022-10-06T13:32:36.662Z,3.07
2022-10-06T13:35:39.944Z,2.48
2022-10-06T13:38:20.059Z,3.07
2022-10-06T13:41:16.661Z,3.21
2022-10-06T13:44:03.961Z,3.31
2022-10-06T13:47:03.025Z,3.32
2022-10-06T13:49:44.086Z,3.43
2022-10-06T13:52:43.575Z,3.45
2022-10-06T13:55:29.681Z,3.46
2022-10-06T13:58:20.185Z,3.37
2022-10-06T14:01:11.424Z,3.37
2022-10-06T14:04:37.406Z,3.40
2022-10-06T14:07:20.787Z,3.48
2022-10-06T14:10:03.500Z,3.58
2022-10-06T14:12:37.981Z,3.68
2022-10-06T14:15:29.114Z,3.79
2022-10-06T14:18:07.104Z,3.92
2022-10-06T14:21:06.246Z,3.99
2022-10-06T14:24:07.804Z,4.03
2022-10-06T14:27:15.420Z,4.09
2022-10-06T14:29:53.354Z,3.99
2022-10-06T14:32:38.344Z,4.13
2022-10-06T14:35:28.394Z,4.14
2022-10-06T14:38:13.564Z,4.16
2022-10-06T14:40:58.615Z,4.09
2022-10-06T14:43:51.055Z,4.22
2022-10-06T14:46:41.298Z,4.21
2022-10-06T14:49:19.156Z,4.26
2022-10-06T14:52:08.006Z,4.32
2022-10-06T14:54:43.848Z,4.33
2022-10-06T14:57:26.638Z,4.33
2022-10-06T15:00:07.186Z,4.35
2022-10-06T15:02:58.279Z,3.79
2022-10-06T15:05:42.682Z,4.30
2022-10-06T15:14:17.670Z,4.00
2022-10-06T15:17:02.114Z,3.63
2022-10-06T15:19:48.016Z,3.48
2022-10-06T15:22:27.441Z,3.54
2022-10-06T15:25:07.561Z,3.56
2022-10-06T15:27:59.861Z,3.48
2022-10-06T15:30:38.538Z,3.44
2022-10-06T15:33:31.878Z,3.38
2022-10-06T15:36:28.788Z,3.30
2022-10-06T15:39:06.084Z,3.38
2022-10-06T15:41:46.455Z,3.34
2022-10-06T15:44:30.282Z,3.34
2022-10-06T15:47:23.742Z,3.41
2022-10-06T15:50:19.653Z,3.39
2022-10-06T15:53:05.680Z,3.35
2022-10-06T15:55:55.081Z,3.08
2022-10-06T15:58:55.159Z,3.28
2022-10-06T16:01:41.891Z,3.33
2022-10-06T16:04:40.479Z,3.16
2022-10-06T16:07:29.291Z,3.38
2022-10-06T16:10:21.248Z,3.38
2022-10-06T16:13:01.355Z,3.24
2022-10-06T16:15:49.176Z,3.15
2022-10-06T16:18:36.606Z,3.15
2022-10-06T16:21:26.034Z,3.01
2022-10-06T16:24:28.016Z,3.12
2022-10-06T16:27:19.598Z,3.05
2022-10-06T16:30:11.517Z,3.21
2022-10-06T16:32:50.126Z,3.29
2022-10-06T16:35:37.006Z,3.33
2022-10-06T16:38:43.151Z,3.17
2022-10-06T16:41:40.236Z,3.08
2022-10-06T16:44:20.880Z,3.05
2022-10-06T16:47:04.748Z,3.08
2022-10-06T16:49:39.770Z,3.06
2022-10-06T16:52:28.451Z,3.08
2022-10-06T16:55:05.048Z,3.06
2022-10-06T16:58:01.996Z,3.07
2022-10-06T17:00:52.036Z,2.98
2022-10-06T17:06:43.330Z,2.90
2022-10-06T17:09:24.253Z,2.81
2022-10-06T17:12:12.175Z,2.70
2022-10-06T17:14:55.278Z,2.74
2022-10-06T17:17:34.657Z,2.74
2022-10-06T17:20:12.482Z,2.77
2022-10-06T17:22:59.628Z,2.74
2022-10-06T17:25:36.907Z,2.58
2022-10-06T17:28:18.973Z,2.71
2022-10-06T17:31:49.859Z,2.69
2022-10-06T17:35:01.643Z,2.65
2022-10-06T17:37:52.189Z,2.62
2022-10-06T17:40:45.451Z,2.57
2022-10-06T17:43:28.023Z,2.55
2022-10-06T17:46:25.227Z,2.50
2022-10-06T17:49:04.854Z,2.31
2022-10-06T17:52:00.396Z,2.30
2022-10-06T17:54:52.291Z,2.35
2022-10-06T17:57:25.437Z,2.37
2022-10-06T18:00:27.923Z,2.01
2022-10-06T18:03:43.180Z,2.37
2022-10-06T18:06:29.943Z,2.19
2022-10-06T18:09:15.568Z,2.36
2022-10-06T18:12:04.691Z,2.31
2022-10-06T18:18:27.052Z,2.17
2022-10-06T18:30:46.563Z,1.71
2022-10-06T18:36:37.643Z,1.97
2022-10-06T18:39:24.794Z,2.08
2022-10-06T18:42:04.970Z,2.13
2022-10-06T18:45:02.323Z,2.15
2022-10-06T18:47:58.260Z,2.15
2022-10-06T18:50:52.794Z,2.30
2022-10-06T18:53:42.535Z,2.40
2022-10-06T18:56:24.642Z,2.41
2022-10-06T18:59:03.614Z,2.37
2022-10-06T19:01:41.525Z,2.35
2022-10-06T19:04:43.890Z,2.36
2022-10-06T19:07:32.972Z,2.36
2022-10-06T19:10:18.316Z,2.36
2022-10-06T19:13:00.057Z,2.28
2022-10-06T19:15:43.316Z,2.21
2022-10-06T19:18:28.177Z,2.10
2022-10-06T19:21:09.431Z,2.06
2022-10-06T19:24:03.096Z,2.06
2022-10-06T19:27:02.190Z,2.10
2022-10-06T19:29:55.403Z,2.17
2022-10-06T19:32:44.260Z,2.25
2022-10-06T19:35:23.219Z,2.27
2022-10-06T19:38:02.422Z,2.20
2022-10-06T19:40:47.733Z,2.08
2022-10-06T19:43:33.760Z,1.98
2022-10-06T19:46:30.422Z,1.95
2022-10-06T19:49:18.106Z,1.86
2022-10-06T19:51:56.461Z,1.86
2022-10-06T19:54:52.642Z,1.84
2022-10-06T19:57:58.252Z,1.18
2022-10-06T20:00:44.717Z,1.68
2022-10-06T20:03:22.832Z,1.65
2022-10-06T20:06:02.254Z,1.68
2022-10-06T20:08:40.314Z,1.73
2022-10-06T20:11:31.370Z,1.67
2022-10-06T20:14:20.987Z,1.53
2022-10-06T20:17:37.556Z,1.65
2022-10-06T20:20:43.262Z,1.59
2022-10-06T20:23:32.426Z,1.69
2022-10-06T20:26:35.662Z,1.76
2022-10-06T20:29:27.505Z,1.79
2022-10-06T20:32:06.029Z,1.82
2022-10-06T20:34:42.388Z,1.87
2022-10-06T20:37:22.815Z,1.94
2022-10-06T20:40:16.716Z,1.94
2022-10-06T20:43:11.038Z,1.68
2022-10-06T20:46:00.524Z,1.91
2022-10-06T20:48:47.744Z,1.55
2022-10-06T20:51:27.750Z,1.78
2022-10-06T20:54:23.335Z,1.75
2022-10-06T20:57:05.616Z,1.39
2022-10-06T20:59:42.893Z,1.11
2022-10-06T21:02:24.927Z,1.59
2022-10-06T21:05:09.813Z,1.52
2022-10-06T21:07:46.417Z,1.49
2022-10-06T21:10:44.318Z,1.47
2022-10-06T21:13:29.431Z,1.55
2022-10-06T21:16:14.898Z,1.70
2022-10-06T21:18:55.679Z,1.81
2022-10-06T21:21:45.724Z,1.91
2022-10-06T21:24:23.143Z,2.06
2022-10-06T21:27:20.601Z,2.32
2022-10-06T21:30:13.056Z,2.36
2022-10-06T21:32:56.345Z,2.62
2022-10-06T21:35:36.996Z,2.73
2022-10-06T21:38:15.076Z,2.88
2022-10-06T21:40:54.246Z,3.04
2022-10-06T21:43:42.427Z,3.05
2022-10-06T21:46:31.192Z,2.83
2022-10-06T21:52:15.463Z,3.38
2022-10-06T21:55:03.415Z,3.33
2022-10-06T21:57:51.891Z,3.30
2022-10-06T22:00:30.677Z,3.25
2022-10-06T22:03:29.900Z,3.15
2022-10-06T22:06:19.412Z,3.17
2022-10-06T22:08:58.018Z,3.26
2022-10-06T22:11:47.247Z,3.30
2022-10-06T22:14:27.901Z,3.52
2022-10-06T22:17:20.330Z,3.51
2022-10-06T22:20:02.551Z,3.65
2022-10-06T22:22:50.245Z,3.93
2022-10-06T22:25:33.509Z,4.05
2022-10-06T22:28:26.618Z,4.17
2022-10-06T22:31:25.719Z,4.30
2022-10-06T22:34:41.346Z,4.45
2022-10-06T22:37:30.147Z,4.65
2022-10-06T22:40:30.173Z,4.79
2022-10-06T22:43:25.201Z,4.87
2022-10-06T22:46:06.791Z,5.11
2022-10-06T22:48:53.930Z,5.23
2022-10-06T22:51:43.841Z,5.52
2022-10-06T22:54:24.607Z,5.69
2022-10-06T22:57:17.196Z,5.85
2022-10-06T23:00:06.516Z,6.08
2022-10-06T23:02:40.624Z,6.20
2022-10-06T23:05:23.257Z,6.36
2022-10-06T23:08:06.114Z,6.66
2022-10-06T23:13:46.191Z,6.98
2022-10-06T23:16:47.399Z,7.15
2022-10-06T23:19:28.746Z,7.49
2022-10-06T23:22:06.811Z,7.35
2022-10-06T23:24:52.834Z,7.86
2022-10-06T23:27:38.004Z,7.96
2022-10-06T23:30:24.166Z,7.97
2022-10-06T23:33:08.775Z,8.15
2022-10-06T23:36:15.524Z,8.10
2022-10-06T23:38:53.377Z,8.43
2022-10-06T23:41:33.182Z,8.67
2022-10-06T23:47:11.387Z,8.87
2022-10-06T23:50:25.155Z,8.71
2022-10-06T23:53:02.218Z,9.02
2022-10-06T23:55:51.303Z,9.11
2022-10-06T23:58:34.232Z,9.25
